Muscle Shoals, AL

11:13 PM CDT on May 25, 2015 (GMT -0500)
Jackson Heights | | Change Station
CLOSE
Current Station
Personal Weather Station
Location: Muscle Shoals, AL
Elevation: 525 ft
Nearby Weather Stations

Elev 525 ft 34.75 °N, 87.64 °W | Updated 9 seconds ago

Clear
Clear
68.4 °F
Feels Like 68.4 °F
N
0.0
Wind Variable Wind from SE
Gusts 0.0 mph

Today
High -- | Low -- °F
--% Chance of Precip.
Yesterday
High -- | Low -- °F
Precip. -- in
5:41 AM 7:53 PM
First Quarter, 54% visible
Pressure 30.11 in
Visibility 10.0 miles
Clouds Clear
Dew Point 68 °F
Humidity 97%
Rainfall 1.34 in
Snow Depth Not available.
UV 0 out of 12
Pollen 3.70 out of 12
Air Quality Not available.
Flu Activity Sporadic
METAR KMSL 260353Z AUTO 14005KT 10SM CLR 20/19 A3012 RMK AO2 SLP196 T02000189 $

More Conditions Fewer Conditions

Pressure 30.11 in
Visibility 10.0 miles
Clouds Clear
Dew Point 68 °F
Humidity 97%
Rainfall 1.34 in
Snow Depth Not available.
UV 0 out of 12
Pollen 3.70 out of 12
Air Quality Not available.
Flu Activity Sporadic
METAR KMSL 260353Z AUTO 14005KT 10SM CLR 20/19 A3012 RMK AO2 SLP196 T02000189 $

More Conditions Fewer Conditions

10-Day Weather Forecast

Almanac

Astronomy

May. 25, 2015 Rise Set
Actual Time
Civil Twilight
Nautical Twilight
Astronomical Twilight
Moon
Length of Visible Light
Length of Day
Tomorrow will be .
, % of the Moon is Illuminated

Today's Extremes

State Highs State Lows

Community

WunderPhotos

Upload Photos

1,824,277 photos uploaded!

WunderBlogs® & News

Nearby

Air Quality

  Air Quality AQ Index Pollutant
Not available.

Snow Depth

Station Depth Elevation

Earthquake Activity

City Distance Mag. Time & Date
Minimum magnitude displayed is 2.5.

Coastal Water Temperatures

Place Temperature

Stations

Nearby Weather Stations

Station Location Temp. Windchill Dew Point Humidity Wind Precip. Elev Updated Type